Time;durP1;ratioP1;P1;durP2;ratioP2;P2;SDS_P1;SDS_P2;PMS_P1;PMS_P2;Temp;Humidity;BMP_temperature;BMP_pressure;BME280_temperature;BME280_humidity;BME280_pressure;Samples;Min_cycle;Max_cycle;Signal;HPM_P1;HPM_P2
2022/03/24 00:01:29;;;;;;;9.57;5.30;;;7.30;99.90;;;;;;4974713;28;20118;-85
2022/03/24 00:03:55;;;;;;;13.60;5.03;;;7.30;99.90;;;;;;4975437;28;20114;-85
2022/03/24 00:06:21;;;;;;;9.90;4.20;;;7.30;99.90;;;;;;4975227;28;20046;-84
2022/03/24 00:08:46;;;;;;;12.18;5.15;;;7.30;99.90;;;;;;4975515;28;20027;-85
2022/03/24 00:11:12;;;;;;;8.40;4.30;;;7.30;99.90;;;;;;4975217;28;20026;-84
2022/03/24 00:13:38;;;;;;;8.05;5.00;;;7.30;99.90;;;;;;4975431;28;20647;-85
2022/03/24 00:16:04;;;;;;;7.28;4.80;;;7.30;99.90;;;;;;4974842;28;20033;-81
2022/03/24 00:18:32;;;;;;;9.48;4.43;;;7.30;99.90;;;;;;4975010;28;20031;-80
2022/03/24 00:21:01;;;;;;;11.57;5.00;;;7.30;99.90;;;;;;4974967;28;20038;-80
2022/03/24 00:23:26;;;;;;;9.45;5.18;;;7.30;99.90;;;;;;4975138;28;20026;-81
2022/03/24 00:25:52;;;;;;;9.13;4.32;;;7.30;99.90;;;;;;4974859;28;20505;-79
2022/03/24 00:28:18;;;;;;;11.60;4.75;;;7.30;99.90;;;;;;4974928;28;20031;-77
2022/03/24 00:30:44;;;;;;;10.07;4.90;;;7.30;99.90;;;;;;4975139;28;20505;-79
2022/03/24 00:33:10;;;;;;;9.85;4.90;;;7.30;99.90;;;;;;4974812;28;20034;-78
2022/03/24 00:35:37;;;;;;;9.32;4.65;;;7.30;99.90;;;;;;4974583;28;20026;-79
2022/03/24 00:38:04;;;;;;;12.90;4.60;;;7.20;99.90;;;;;;4974198;28;20051;-79
2022/03/24 00:40:30;;;;;;;25.02;6.20;;;7.20;99.90;;;;;;4974838;28;20039;-79
2022/03/24 00:42:57;;;;;;;10.52;4.78;;;7.20;99.90;;;;;;4974651;28;20034;-79
2022/03/24 00:45:23;;;;;;;11.80;5.18;;;7.20;99.90;;;;;;4974720;28;20026;-79
2022/03/24 00:47:49;;;;;;;14.35;5.10;;;7.20;99.90;;;;;;4974698;28;20113;-79
2022/03/24 00:50:15;;;;;;;9.68;4.68;;;7.20;99.90;;;;;;4974231;28;20027;-79
2022/03/24 00:52:45;;;;;;;11.00;4.85;;;7.20;99.90;;;;;;4974546;28;20030;-79
2022/03/24 00:55:13;;;;;;;13.77;5.20;;;7.20;99.90;;;;;;4974097;28;20031;-79
2022/03/24 00:57:43;;;;;;;12.25;4.88;;;7.10;99.90;;;;;;4974392;28;20058;-78
2022/03/24 01:00:10;;;;;;;;;;;7.10;99.90;;;;;;4974700;28;20082;-79
2022/03/24 01:02:37;;;;;;;11.63;5.32;;;7.20;99.90;;;;;;4974047;28;20366;-79
2022/03/24 01:05:07;;;;;;;9.18;4.13;;;7.20;99.90;;;;;;4973976;28;20066;-79
2022/03/24 01:07:36;;;;;;;8.60;4.78;;;7.20;99.90;;;;;;4974255;28;20078;-78
2022/03/24 01:10:04;;;;;;;12.07;4.97;;;7.20;99.90;;;;;;4974054;28;20061;-79
2022/03/24 01:12:30;;;;;;;12.93;5.50;;;7.20;99.90;;;;;;4974185;28;20038;-81
2022/03/24 01:14:58;;;;;;;8.95;4.32;;;7.20;99.90;;;;;;4973071;28;20031;-81
2022/03/24 01:17:26;;;;;;;12.25;4.93;;;7.20;99.90;;;;;;4973880;28;20606;-80
2022/03/24 01:19:53;;;;;;;10.63;4.75;;;7.20;99.90;;;;;;4973994;28;20026;-81
2022/03/24 01:22:18;;;;;;;19.27;5.40;;;7.20;99.90;;;;;;4973657;28;20026;-82
2022/03/24 01:24:45;;;;;;;11.85;5.82;;;7.20;99.90;;;;;;4973750;28;20023;-82
2022/03/24 01:27:12;;;;;;;10.02;4.63;;;7.20;99.90;;;;;;4973814;28;20027;-81
2022/03/24 01:29:38;;;;;;;8.98;4.70;;;7.20;99.90;;;;;;4974004;28;20046;-82
2022/03/24 01:32:04;;;;;;;10.32;4.10;;;7.10;99.90;;;;;;4973753;28;20398;-81
2022/03/24 01:34:30;;;;;;;12.55;5.05;;;7.10;99.90;;;;;;4973789;28;20074;-79
2022/03/24 01:36:56;;;;;;;10.45;4.55;;;7.20;99.90;;;;;;4973237;28;20051;-79
2022/03/24 01:39:22;;;;;;;13.95;4.93;;;7.20;99.90;;;;;;4973389;28;20029;-79
2022/03/24 01:41:48;;;;;;;10.45;4.65;;;7.20;99.90;;;;;;4973623;28;20122;-81
2022/03/24 01:44:17;;;;;;;11.93;5.13;;;7.20;99.90;;;;;;4973300;28;20107;-81
2022/03/24 01:46:56;;;;;;;9.45;5.18;;;7.20;99.90;;;;;;4973687;28;20035;-81
2022/03/24 01:49:23;;;;;;;12.57;4.75;;;7.20;99.90;;;;;;4973411;28;20018;-81
2022/03/24 01:51:49;;;;;;;7.78;4.65;;;7.20;99.90;;;;;;4973661;28;20154;-81
2022/03/24 01:54:16;;;;;;;7.20;3.88;;;7.20;99.90;;;;;;4973329;28;20077;-81
2022/03/24 01:56:43;;;;;;;9.43;4.65;;;7.10;99.90;;;;;;4973659;28;20027;-81
2022/03/24 01:59:13;;;;;;;9.02;4.43;;;7.10;99.90;;;;;;4973252;28;20478;-81
2022/03/24 02:01:38;;;;;;;9.35;4.40;;;7.10;99.90;;;;;;4973237;28;20053;-81
2022/03/24 02:04:05;;;;;;;9.25;5.03;;;7.00;99.90;;;;;;4973449;28;20026;-81
2022/03/24 02:06:32;;;;;;;9.30;4.78;;;7.00;99.90;;;;;;4973521;28;20106;-80
2022/03/24 02:09:02;;;;;;;7.82;4.55;;;7.10;99.90;;;;;;4973435;28;20027;-80
2022/03/24 02:11:29;;;;;;;9.27;4.40;;;7.10;99.90;;;;;;4973282;28;20062;-81
2022/03/24 02:13:56;;;;;;;14.05;4.60;;;7.00;99.90;;;;;;4973176;28;20035;-81
2022/03/24 02:16:27;;;;;;;11.50;4.50;;;7.00;99.90;;;;;;4972952;28;20031;-81
2022/03/24 02:18:59;;;;;;;7.00;4.18;;;7.00;99.90;;;;;;4973121;28;20033;-80
2022/03/24 02:21:26;;;;;;;6.35;4.03;;;7.00;99.90;;;;;;4973066;28;20049;-81
2022/03/24 02:23:52;;;;;;;6.65;3.78;;;6.90;99.90;;;;;;4973257;28;20046;-80
2022/03/24 02:52:56;;;;;;;8.88;3.72;;;6.80;99.90;;;;;;4975744;28;20145;-78
2022/03/24 02:55:22;;;;;;;9.90;3.80;;;6.80;99.90;;;;;;4976674;28;20030;-77
2022/03/24 02:57:47;;;;;;;7.97;4.20;;;6.80;99.90;;;;;;4976690;28;20101;-77
2022/03/24 03:00:15;;;;;;;5.15;3.58;;;6.80;99.90;;;;;;4976392;28;20033;-83
2022/03/24 03:02:40;;;;;;;7.57;3.80;;;6.80;99.90;;;;;;4976445;28;20034;-82
2022/03/24 03:38:47;;;;;;;6.93;3.90;;;6.70;99.90;;;;;;5023312;23;20062;-77
2022/03/24 03:41:14;;;;;;;5.97;3.35;;;6.70;99.90;;;;;;4975355;28;20122;-78
2022/03/24 03:43:41;;;;;;;9.07;3.55;;;6.70;99.90;;;;;;4975954;28;20054;-77
2022/03/24 03:46:08;;;;;;;5.90;3.17;;;6.60;99.90;;;;;;4975766;28;20026;-78
2022/03/24 03:48:35;;;;;;;7.07;3.47;;;6.60;99.90;;;;;;4975783;28;20030;-78
2022/03/24 03:51:00;;;;;;;5.53;3.28;;;6.60;99.90;;;;;;4975437;28;20422;-78
2022/03/24 03:53:27;;;;;;;4.53;3.20;;;6.60;99.90;;;;;;4975375;28;20058;-79
2022/03/24 03:55:53;;;;;;;6.53;2.83;;;6.60;99.90;;;;;;4975608;28;20027;-79
2022/03/24 03:58:19;;;;;;;6.35;2.90;;;6.60;99.90;;;;;;4975288;28;20105;-79
2022/03/24 04:00:55;;;;;;;4.55;2.97;;;6.60;99.90;;;;;;4975549;28;20030;-78
2022/03/24 04:03:25;;;;;;;4.80;2.95;;;6.60;99.90;;;;;;4975330;28;20375;-79
2022/03/24 04:05:52;;;;;;;7.27;2.77;;;6.60;99.90;;;;;;4975644;28;20022;-79
2022/03/24 04:08:19;;;;;;;5.10;2.88;;;6.60;99.90;;;;;;4975358;28;20031;-78
2022/03/24 04:10:44;;;;;;;6.63;2.70;;;6.60;99.90;;;;;;4975342;28;20035;-78
2022/03/24 04:13:11;;;;;;;8.00;3.35;;;6.60;99.90;;;;;;4975297;28;20085;-78
2022/03/24 04:15:38;;;;;;;6.00;3.00;;;6.60;99.90;;;;;;4975496;28;20035;-77
2022/03/24 04:18:06;;;;;;;4.03;2.65;;;6.60;99.90;;;;;;4975201;28;20026;-78
2022/03/24 04:20:32;;;;;;;6.15;2.83;;;6.60;99.90;;;;;;4975041;28;20421;-78
2022/03/24 04:23:03;;;;;;;4.97;2.67;;;6.60;99.90;;;;;;4974936;28;20474;-78
2022/03/24 04:25:29;;;;;;;5.22;2.67;;;6.60;99.90;;;;;;4975011;28;20072;-78
2022/03/24 04:27:55;;;;;;;4.85;2.70;;;6.60;99.90;;;;;;4975010;28;20054;-81
2022/03/24 04:30:26;;;;;;;6.50;2.83;;;6.60;99.90;;;;;;4974960;28;20023;-80
2022/03/24 04:32:52;;;;;;;;;;;6.60;99.90;;;;;;4975125;28;20445;-80
2022/03/24 04:35:18;;;;;;;7.35;2.80;;;6.50;99.90;;;;;;4974845;28;19910;-81
2022/03/24 04:37:44;;;;;;;7.35;2.67;;;6.50;99.90;;;;;;4974438;28;20185;-81
2022/03/24 04:40:11;;;;;;;4.95;2.50;;;6.50;99.90;;;;;;4974515;28;20027;-80
2022/03/24 04:42:38;;;;;;;6.25;2.60;;;6.50;99.90;;;;;;4974776;28;20035;-82
2022/03/24 04:45:06;;;;;;;3.15;2.53;;;6.50;99.90;;;;;;4974469;28;20023;-79
2022/03/24 04:47:32;;;;;;;3.55;2.25;;;6.50;99.90;;;;;;4974319;28;20035;-82
2022/03/24 04:49:58;;;;;;;4.70;2.47;;;6.40;99.90;;;;;;4974642;28;20035;-83
2022/03/24 04:52:23;;;;;;;5.63;2.40;;;6.50;99.90;;;;;;4974505;28;20031;-82
2022/03/24 04:54:50;;;;;;;3.97;2.45;;;6.50;99.90;;;;;;4974623;28;20030;-83
2022/03/24 04:57:16;;;;;;;4.10;2.20;;;6.50;99.90;;;;;;4974135;28;20023;-81
2022/03/24 04:59:42;;;;;;;8.38;2.35;;;6.40;99.90;;;;;;4974483;28;20352;-80
2022/03/24 05:02:09;;;;;;;3.22;2.25;;;6.40;99.90;;;;;;4974225;28;20544;-81
2022/03/24 05:04:35;;;;;;;4.00;2.05;;;6.40;99.90;;;;;;4974117;28;20023;-80
2022/03/24 05:07:01;;;;;;;5.22;2.55;;;6.40;99.90;;;;;;4973925;28;20446;-81
2022/03/24 05:09:27;;;;;;;4.35;1.67;;;6.40;99.90;;;;;;4973702;28;20065;-80
2022/03/24 05:11:52;;;;;;;4.72;2.40;;;6.40;99.90;;;;;;4973911;28;20050;-81
2022/03/24 05:14:18;;;;;;;3.30;2.03;;;6.40;99.90;;;;;;4973577;28;20478;-79
2022/03/24 05:16:45;;;;;;;7.85;2.50;;;6.40;99.90;;;;;;4974519;28;20019;-79
2022/03/24 05:19:11;;;;;;;4.57;2.20;;;6.40;99.90;;;;;;4973848;28;20086;-79
2022/03/24 05:21:36;;;;;;;3.60;2.38;;;6.40;99.90;;;;;;4973613;28;20035;-79
2022/03/24 05:24:02;;;;;;;6.88;2.28;;;6.30;99.90;;;;;;4973865;28;20034;-79
2022/03/24 05:26:28;;;;;;;5.15;2.13;;;6.30;99.90;;;;;;4973408;28;20031;-79
2022/03/24 05:28:54;;;;;;;3.38;1.98;;;6.30;99.90;;;;;;4973603;28;20031;-79
2022/03/24 05:31:21;;;;;;;4.68;2.20;;;6.30;99.90;;;;;;4973585;28;20371;-81
2022/03/24 05:33:47;;;;;;;5.07;2.08;;;6.30;99.90;;;;;;4972138;28;20125;-77
2022/03/24 05:36:13;;;;;;;4.97;1.95;;;6.30;99.90;;;;;;4973520;28;20433;-76
2022/03/24 05:38:38;;;;;;;7.25;2.35;;;6.30;99.90;;;;;;4973224;28;20047;-70
2022/03/24 05:41:05;;;;;;;12.20;2.33;;;6.20;99.90;;;;;;4973048;28;20031;-74
2022/03/24 05:43:31;;;;;;;6.90;2.10;;;6.30;99.90;;;;;;4973405;28;20086;-74
2022/03/24 05:45:57;;;;;;;1.88;1.48;;;6.50;99.90;;;;;;4973278;28;20023;-73
2022/03/24 05:48:23;;;;;;;41.58;17.00;;;6.60;99.90;;;;;;4972489;28;20027;-75
2022/03/24 05:50:49;;;;;;;85.28;36.38;;;6.50;99.90;;;;;;4972531;28;20031;-72
2022/03/24 05:53:15;;;;;;;335.10;160.10;;;6.50;99.90;;;;;;4972421;28;20111;-75
2022/03/24 05:55:41;;;;;;;44.88;25.27;;;6.50;99.90;;;;;;4972917;28;20030;-72
2022/03/24 05:58:07;;;;;;;7.60;3.13;;;6.50;99.90;;;;;;4972198;28;20086;-73
2022/03/24 06:00:36;;;;;;;5.35;2.85;;;6.50;99.90;;;;;;4971638;28;20038;-72
2022/03/24 06:03:03;;;;;;;3.05;1.80;;;6.60;99.90;;;;;;4972801;28;20378;-73
2022/03/24 06:05:29;;;;;;;2.38;1.70;;;6.60;99.90;;;;;;4972444;28;20027;-69
2022/03/24 06:07:58;;;;;;;2.40;1.67;;;6.60;99.90;;;;;;4972221;28;20030;-70
2022/03/24 06:10:24;;;;;;;2.88;1.48;;;6.60;99.90;;;;;;4972960;28;20102;-69
2022/03/24 06:12:51;;;;;;;2.53;1.73;;;6.70;99.90;;;;;;4972672;28;20023;-69
2022/03/24 06:15:17;;;;;;;1.55;1.33;;;6.70;99.90;;;;;;4972427;28;20038;-69
2022/03/24 06:17:43;;;;;;;2.58;1.10;;;6.70;99.90;;;;;;4971173;28;20434;-70
2022/03/24 06:20:10;;;;;;;2.45;1.05;;;6.80;99.90;;;;;;4972731;28;20381;-69
2022/03/24 06:22:52;;;;;;;5.00;1.30;;;6.80;99.90;;;;;;4972388;28;20027;-71
2022/03/24 06:25:19;;;;;;;3.38;1.30;;;6.90;99.90;;;;;;4970123;28;20422;-69
2022/03/24 06:27:51;;;;;;;6.90;1.30;;;6.90;99.90;;;;;;4971664;28;20035;-70
2022/03/24 06:30:18;;;;;;;4.95;1.10;;;7.00;99.90;;;;;;4973147;28;20030;-71
2022/03/24 06:32:43;;;;;;;1.05;0.95;;;7.10;99.90;;;;;;4972903;28;20513;-71
2022/03/24 06:35:11;;;;;;;2.97;1.45;;;7.10;99.90;;;;;;4973014;28;20035;-71
2022/03/24 06:37:40;;;;;;;4.03;1.33;;;7.20;99.90;;;;;;4972655;28;20035;-71
2022/03/24 06:40:10;;;;;;;2.17;0.85;;;7.20;99.90;;;;;;4972792;28;20120;-71
2022/03/24 06:42:36;;;;;;;1.95;0.88;;;7.30;99.90;;;;;;4972930;28;20035;-71
2022/03/24 06:45:04;;;;;;;13.50;1.05;;;7.30;99.90;;;;;;4972836;28;20023;-68
2022/03/24 06:47:30;;;;;;;1.10;0.75;;;7.40;99.90;;;;;;4972806;28;20027;-68
2022/03/24 06:49:56;;;;;;;2.58;0.80;;;7.40;99.90;;;;;;4972822;28;20023;-68
2022/03/24 06:52:22;;;;;;;1.75;0.73;;;7.40;99.90;;;;;;4971491;28;20081;-69
2022/03/24 06:54:47;;;;;;;0.98;0.60;;;7.40;99.90;;;;;;4972798;28;20032;-74
2022/03/24 06:57:14;;;;;;;1.20;0.70;;;7.40;99.90;;;;;;4972417;28;20033;-73
2022/03/24 06:59:43;;;;;;;1.15;0.65;;;7.40;99.90;;;;;;4972496;28;20023;-73
2022/03/24 07:02:09;;;;;;;0.90;0.77;;;7.30;99.90;;;;;;4972966;28;20110;-85
2022/03/24 07:04:36;;;;;;;4.55;0.70;;;7.30;99.90;;;;;;4973101;28;20443;-82
2022/03/24 07:07:03;;;;;;;0.85;0.60;;;7.30;99.90;;;;;;4973307;28;20031;-85
2022/03/24 07:09:29;;;;;;;9.20;1.50;;;7.20;99.90;;;;;;4972916;28;20026;-72
2022/03/24 07:11:55;;;;;;;4.63;0.80;;;7.30;99.90;;;;;;4973512;28;20055;-74
2022/03/24 07:14:21;;;;;;;7.30;0.90;;;7.60;99.90;;;;;;4975906;28;20046;-73
2022/03/24 07:16:47;;;;;;;2.90;0.68;;;7.60;99.90;;;;;;4976102;28;20082;-76
2022/03/24 07:19:13;;;;;;;2.15;0.60;;;7.50;99.90;;;;;;4975875;28;20027;-75
2022/03/24 07:21:39;;;;;;;7.47;0.68;;;7.40;99.90;;;;;;4976036;28;20039;-74
2022/03/24 07:24:05;;;;;;;3.13;0.73;;;7.30;99.90;;;;;;4975958;28;20486;-74
2022/03/24 07:26:31;;;;;;;8.35;0.77;;;7.10;99.90;;;;;;4975676;28;20042;-75
2022/03/24 07:28:57;;;;;;;9.82;1.20;;;7.00;99.90;;;;;;4975675;28;20026;-74
2022/03/24 07:31:23;;;;;;;8.15;1.10;;;7.00;99.90;;;;;;4975524;28;20386;-75
2022/03/24 07:33:51;;;;;;;22.45;2.78;;;7.00;99.90;;;;;;4975703;28;20481;-74
2022/03/24 07:36:22;;;;;;;4.18;0.93;;;6.90;99.90;;;;;;4975421;28;20019;-75
2022/03/24 07:38:49;;;;;;;16.25;0.80;;;6.90;99.90;;;;;;4975424;28;20137;-74
2022/03/24 07:41:15;;;;;;;24.23;1.05;;;6.90;99.90;;;;;;4975286;28;20067;-73
2022/03/24 07:43:41;;;;;;;2.55;0.60;;;6.80;99.90;;;;;;4975622;28;20065;-73
2022/03/24 07:46:07;;;;;;;10.65;0.75;;;6.70;99.90;;;;;;4975527;28;20027;-74
2022/03/24 07:48:33;;;;;;;4.15;0.85;;;6.60;99.90;;;;;;4975163;28;20027;-73
2022/03/24 07:51:00;;;;;;;4.80;0.98;;;6.50;99.90;;;;;;4975112;28;20035;-72
2022/03/24 07:53:28;;;;;;;19.50;1.08;;;6.40;99.90;;;;;;4974913;28;20050;-73
2022/03/24 07:55:56;;;;;;;2.40;0.50;;;6.40;99.90;;;;;;4974810;28;20031;-72
2022/03/24 07:58:22;;;;;;;12.88;1.20;;;6.30;99.90;;;;;;4974682;28;20027;-71
2022/03/24 08:00:49;;;;;;;6.38;0.50;;;6.20;99.90;;;;;;4974615;28;20368;-70
2022/03/24 08:03:17;;;;;;;9.20;1.27;;;6.20;99.90;;;;;;4974524;28;20521;-71
2022/03/24 08:05:44;;;;;;;32.10;1.40;;;6.20;99.90;;;;;;4974714;28;20042;-70
2022/03/24 08:08:10;;;;;;;4.32;0.40;;;6.20;99.90;;;;;;4974875;28;20027;-70
2022/03/24 08:10:37;;;;;;;0.20;0.20;;;6.20;99.90;;;;;;4974662;28;20065;-70
2022/03/24 08:13:04;;;;;;;45.75;1.92;;;6.20;99.90;;;;;;4974875;28;20034;-69
2022/03/24 08:15:30;;;;;;;3.30;0.75;;;6.20;99.80;;;;;;4972526;28;20026;-69
2022/03/24 08:17:56;;;;;;;1.85;0.40;;;6.20;98.70;;;;;;4974780;28;20031;-67
2022/03/24 08:20:23;;;;;;;7.65;0.60;;;6.20;97.20;;;;;;4971613;28;20032;-68
2022/03/24 08:22:49;;;;;;;7.07;0.80;;;6.20;97.60;;;;;;4971057;28;20035;-67
2022/03/24 08:25:15;;;;;;;15.00;1.10;;;6.20;97.30;;;;;;4960015;28;20489;-69
2022/03/24 08:27:41;;;;;;;3.67;0.70;;;6.20;96.80;;;;;;4965071;28;20035;-68
2022/03/24 08:30:07;;;;;;;2.20;0.35;;;6.30;96.40;;;;;;4968412;28;20031;-68
2022/03/24 08:32:33;;;;;;;2.78;0.50;;;6.30;95.60;;;;;;4958027;28;20062;-68
2022/03/24 08:35:00;;;;;;;10.45;0.90;;;6.20;95.20;;;;;;4969932;28;20525;-69
2022/03/24 08:37:25;;;;;;;25.35;1.23;;;6.20;95.30;;;;;;4959871;28;20560;-69
2022/03/24 08:39:51;;;;;;;8.80;0.80;;;6.20;95.10;;;;;;4962948;28;20055;-70
2022/03/24 08:42:17;;;;;;;14.63;1.33;;;6.20;95.50;;;;;;4968413;28;20097;-68
2022/03/24 08:44:43;;;;;;;4.78;0.55;;;6.20;96.50;;;;;;4963565;28;20035;-74
2022/03/24 08:47:09;;;;;;;25.02;1.88;;;6.20;95.30;;;;;;4973465;28;20026;-75
2022/03/24 08:49:34;;;;;;;24.13;1.90;;;6.20;96.00;;;;;;4965028;28;20035;-74
2022/03/24 08:52:00;;;;;;;22.45;2.15;;;6.30;95.80;;;;;;4963229;28;20027;-74
2022/03/24 08:54:26;;;;;;;3.58;0.70;;;6.30;95.60;;;;;;4957732;28;20398;-77
2022/03/24 08:56:52;;;;;;;37.85;2.45;;;6.30;95.10;;;;;;4977466;28;20038;-75
2022/03/24 08:59:18;;;;;;;4.93;0.68;;;6.80;99.90;;;;;;4967087;28;20027;-70
2022/03/24 09:01:44;;;;;;;12.07;1.33;;;6.90;98.70;;;;;;4963670;28;20047;-72
2022/03/24 09:04:10;;;;;;;14.57;1.50;;;6.70;95.10;;;;;;4960228;28;20023;-71
2022/03/24 09:06:39;;;;;;;11.02;0.93;;;6.60;94.00;;;;;;4968283;28;20121;-70
2022/03/24 09:09:05;;;;;;;6.53;0.63;;;6.50;94.00;;;;;;4963277;28;20027;-69
2022/03/24 09:11:31;;;;;;;2.17;0.50;;;6.50;94.40;;;;;;4973262;28;20018;-69
2022/03/24 09:13:57;;;;;;;8.82;0.88;;;6.50;94.10;;;;;;4972627;28;20105;-69
2022/03/24 09:16:23;;;;;;;9.85;0.70;;;6.50;94.10;;;;;;4972837;28;20031;-71
2022/03/24 09:18:49;;;;;;;1.15;0.40;;;6.40;93.70;;;;;;4972853;28;20677;-74
2022/03/24 09:21:16;;;;;;;3.08;0.52;;;6.40;93.90;;;;;;4970556;28;20044;-71
2022/03/24 09:23:43;;;;;;;5.90;1.20;;;6.60;96.60;;;;;;4983725;28;20565;-68
2022/03/24 09:26:09;;;;;;;0.85;0.50;;;6.90;99.90;;;;;;4970058;28;20049;-67
2022/03/24 09:28:35;;;;;;;5.97;0.90;;;7.40;97.60;;;;;;4972799;28;20050;-68
2022/03/24 09:31:01;;;;;;;2.08;0.40;;;7.10;92.60;;;;;;4963682;28;20490;-67
2022/03/24 09:33:27;;;;;;;19.35;1.25;;;6.90;90.60;;;;;;4953171;28;20054;-67
2022/03/24 09:35:52;;;;;;;13.55;1.55;;;6.70;90.00;;;;;;4952175;28;20027;-67
2022/03/24 09:38:18;;;;;;;47.35;4.68;;;6.60;88.70;;;;;;4952641;29;20062;-68
2022/03/24 09:40:45;;;;;;;20.58;1.27;;;6.60;89.60;;;;;;4952331;28;20106;-67
2022/03/24 09:43:13;;;;;;;11.20;1.25;;;6.60;88.00;;;;;;4954421;28;20382;-67
2022/03/24 09:45:41;;;;;;;15.38;1.83;;;6.60;86.60;;;;;;4954095;28;20027;-67
2022/03/24 09:48:07;;;;;;;23.23;1.52;;;6.60;85.30;;;;;;4954223;28;20118;-67
2022/03/24 09:50:34;;;;;;;19.27;1.27;;;6.50;80.80;;;;;;4954298;28;20114;-67
2022/03/24 09:53:01;;;;;;;9.18;0.88;;;6.50;80.20;;;;;;4954187;28;20023;-67
2022/03/24 09:55:30;;;;;;;11.07;0.80;;;6.50;80.00;;;;;;4953907;28;20170;-67
2022/03/24 09:57:57;;;;;;;13.13;1.10;;;6.40;78.50;;;;;;4953976;28;20118;-67
2022/03/24 10:00:23;;;;;;;14.70;0.98;;;6.30;78.40;;;;;;4953710;28;20027;-68
2022/03/24 10:03:09;;;;;;;15.30;1.15;;;6.20;78.80;;;;;;4953766;28;20031;-68
2022/03/24 10:05:35;;;;;;;5.78;1.20;;;6.10;79.20;;;;;;4953685;28;20019;-68
2022/03/24 10:08:06;;;;;;;7.70;0.77;;;6.10;80.30;;;;;;4953775;28;20031;-68
2022/03/24 10:10:34;;;;;;;13.13;1.13;;;6.10;80.50;;;;;;4953607;28;20490;-67
2022/03/24 10:13:01;;;;;;;48.72;1.92;;;6.10;81.50;;;;;;4953615;28;20546;-68
2022/03/24 10:15:28;;;;;;;0.55;0.30;;;6.00;81.30;;;;;;4953809;28;20028;-68
2022/03/24 10:17:56;;;;;;;6.65;0.60;;;5.90;81.30;;;;;;4953713;28;20030;-68
2022/03/24 10:20:28;;;;;;;33.33;2.10;;;5.80;80.10;;;;;;4953488;28;20439;-67
2022/03/24 10:22:58;;;;;;;11.52;1.13;;;5.60;80.30;;;;;;4956363;28;20069;-67
2022/03/24 10:25:25;;;;;;;24.40;2.00;;;5.70;85.70;;;;;;4972676;28;20077;-67
2022/03/24 10:28:02;;;;;;;7.68;0.60;;;5.70;82.70;;;;;;4973033;28;20050;-67
2022/03/24 10:30:28;;;;;;;9.98;1.08;;;5.60;83.40;;;;;;4972882;28;20046;-76
2022/03/24 10:32:56;;;;;;;7.85;0.75;;;5.60;84.10;;;;;;4972955;28;20027;-73
2022/03/24 10:35:22;;;;;;;6.13;0.60;;;5.60;84.10;;;;;;4972811;28;20130;-75
2022/03/24 10:37:52;;;;;;;7.57;1.00;;;5.40;84.80;;;;;;4972457;28;20562;-75
2022/03/24 10:40:19;;;;;;;0.50;0.38;;;5.40;87.40;;;;;;4972545;28;20045;-75
2022/03/24 10:42:44;;;;;;;4.72;0.80;;;5.30;85.40;;;;;;4975141;28;20099;-75
2022/03/24 10:45:15;;;;;;;5.28;0.98;;;5.20;86.10;;;;;;4971646;28;20114;-75
2022/03/24 10:47:46;;;;;;;2.03;0.50;;;5.10;87.70;;;;;;4976169;28;20129;-74
2022/03/24 10:50:28;;;;;;;5.47;0.70;;;5.10;87.50;;;;;;4976552;28;20033;-75
2022/03/24 10:52:59;;;;;;;10.73;0.75;;;5.00;86.50;;;;;;4976323;28;20030;-75
2022/03/24 10:55:30;;;;;;;8.65;0.85;;;5.00;90.40;;;;;;4976342;28;20114;-75
2022/03/24 10:57:58;;;;;;;8.75;1.10;;;5.00;86.50;;;;;;4976350;28;20027;-75
2022/03/24 11:00:24;;;;;;;9.23;1.50;;;5.00;86.20;;;;;;4976074;28;20099;-75
2022/03/24 11:02:50;;;;;;;11.73;1.25;;;5.00;85.60;;;;;;4976055;28;20415;-74
2022/03/24 11:05:16;;;;;;;7.00;1.00;;;4.90;85.80;;;;;;4975466;28;20046;-75
2022/03/24 11:07:51;;;;;;;3.65;0.77;;;4.90;85.30;;;;;;4976166;28;20041;-74
2022/03/24 11:10:17;;;;;;;3.80;0.70;;;4.80;85.00;;;;;;4976502;28;20090;-75
2022/03/24 11:12:44;;;;;;;8.40;0.93;;;4.80;85.50;;;;;;4976125;28;20031;-74
2022/03/24 11:15:10;;;;;;;8.38;0.90;;;5.20;99.90;;;;;;4975933;28;20035;-72
2022/03/24 11:17:39;;;;;;;10.55;1.10;;;5.30;91.60;;;;;;4975529;28;20030;-71
2022/03/24 11:20:15;;;;;;;17.08;1.38;;;5.10;89.30;;;;;;4976070;28;20025;-71
2022/03/24 11:22:59;;;;;;;13.82;2.67;;;5.00;90.30;;;;;;4975802;28;20027;-76
2022/03/24 11:25:26;;;;;;;9.95;1.20;;;4.90;90.50;;;;;;4974469;28;20116;-70
2022/03/24 11:27:54;;;;;;;23.17;1.40;;;4.90;90.10;;;;;;4975217;28;20037;-69
2022/03/24 11:30:21;;;;;;;7.85;0.80;;;4.90;90.10;;;;;;4974995;28;20027;-69
2022/03/24 11:32:50;;;;;;;9.40;1.40;;;4.90;89.60;;;;;;4974141;28;20054;-69
2022/03/24 11:35:17;;;;;;;21.30;1.33;;;4.90;89.40;;;;;;4974934;28;20118;-69
2022/03/24 11:37:43;;;;;;;10.90;1.13;;;5.00;89.90;;;;;;4974722;28;20057;-69
2022/03/24 11:40:14;;;;;;;11.40;1.27;;;5.00;89.70;;;;;;4975140;28;20042;-69
2022/03/24 11:42:42;;;;;;;;;;;5.00;89.70;;;;;;4973232;28;20034;-68
2022/03/24 11:45:17;;;;;;;20.80;1.02;;;5.00;90.20;;;;;;4974523;28;20586;-68
2022/03/24 11:47:52;;;;;;;9.88;0.95;;;5.00;89.30;;;;;;4974892;28;20058;-68
2022/03/24 11:50:33;;;;;;;9.35;1.67;;;4.80;90.10;;;;;;4975441;28;20058;-69
2022/03/24 11:53:09;;;;;;;17.58;1.70;;;4.80;90.70;;;;;;4975213;28;20034;-69
2022/03/24 11:55:37;;;;;;;22.45;2.22;;;4.80;91.10;;;;;;4975290;28;20027;-69
2022/03/24 11:58:03;;;;;;;17.90;1.13;;;4.80;91.20;;;;;;4974728;28;20058;-69
2022/03/24 12:00:28;;;;;;;20.10;1.90;;;4.80;91.60;;;;;;4974954;28;20031;-69
2022/03/24 12:03:00;;;;;;;7.85;1.10;;;4.80;91.30;;;;;;4975179;28;20026;-69
2022/03/24 12:05:51;;;;;;;16.48;1.83;;;4.70;92.10;;;;;;4975181;28;20050;-68
2022/03/24 12:08:27;;;;;;;15.73;2.33;;;4.80;92.50;;;;;;4974942;28;20027;-69
2022/03/24 12:10:53;;;;;;;5.15;1.20;;;4.70;93.50;;;;;;4974755;28;20023;-69
2022/03/24 12:13:21;;;;;;;8.85;1.10;;;4.70;94.00;;;;;;4974837;28;20105;-69
2022/03/24 12:16:18;;;;;;;12.10;1.00;;;4.70;94.30;;;;;;4974609;28;20054;-69
2022/03/24 12:18:44;;;;;;;7.63;0.93;;;4.60;93.10;;;;;;4974640;28;20716;-69
2022/03/24 12:21:19;;;;;;;16.90;1.00;;;4.50;93.10;;;;;;4974025;28;20043;-70
2022/03/24 12:24:07;;;;;;;35.25;1.63;;;4.30;93.20;;;;;;4974306;28;20035;-69
2022/03/24 12:26:49;;;;;;;7.20;1.15;;;4.20;93.70;;;;;;4974237;28;20041;-70
2022/03/24 12:29:17;;;;;;;6.07;1.17;;;4.30;93.80;;;;;;4973058;28;20049;-69
2022/03/24 12:31:55;;;;;;;9.20;1.20;;;4.20;93.60;;;;;;4974237;28;20376;-70
2022/03/24 12:34:22;;;;;;;47.70;5.20;;;4.30;93.00;;;;;;4974399;28;20027;-70
2022/03/24 12:36:48;;;;;;;9.00;1.10;;;4.30;92.90;;;;;;4973975;28;20106;-70
2022/03/24 12:39:34;;;;;;;2.53;1.10;;;4.30;93.40;;;;;;4973772;28;20043;-71
2022/03/24 12:42:12;;;;;;;6.53;1.33;;;4.30;92.50;;;;;;4968137;28;20035;-71
2022/03/24 12:44:58;;;;;;;12.88;1.10;;;4.30;93.60;;;;;;4962325;28;20023;-74
2022/03/24 12:47:36;;;;;;;3.97;0.82;;;4.30;92.80;;;;;;4971661;28;20049;-69
2022/03/24 12:50:29;;;;;;;8.00;1.30;;;4.20;92.30;;;;;;4967601;28;20138;-67
2022/03/24 12:53:07;;;;;;;3.95;1.30;;;4.90;99.90;;;;;;4968193;28;20114;-68
2022/03/24 12:55:35;;;;;;;12.10;1.35;;;5.10;95.80;;;;;;4965567;28;20037;-69
2022/03/24 12:58:15;;;;;;;16.40;1.30;;;5.00;92.50;;;;;;4960233;28;20019;-69
2022/03/24 13:00:53;;;;;;;15.50;1.05;;;4.80;90.40;;;;;;4969150;28;20037;-69
2022/03/24 13:03:19;;;;;;;5.88;0.88;;;4.70;92.50;;;;;;4977976;28;20045;-69
2022/03/24 13:05:51;;;;;;;14.50;0.90;;;4.80;90.80;;;;;;4957199;28;20386;-69
2022/03/24 13:08:17;;;;;;;4.90;0.90;;;4.80;87.60;;;;;;4967308;28;20065;-69
2022/03/24 13:10:53;;;;;;;43.47;1.90;;;4.70;85.40;;;;;;4962628;28;20532;-69
2022/03/24 13:13:20;;;;;;;9.00;1.00;;;4.50;85.30;;;;;;4960489;28;20114;-69
2022/03/24 13:15:47;;;;;;;11.45;0.93;;;4.50;84.60;;;;;;4962127;28;20070;-69
2022/03/24 13:18:14;;;;;;;11.82;1.35;;;4.50;84.40;;;;;;4961071;28;20042;-69
2022/03/24 13:20:53;;;;;;;15.95;1.40;;;4.40;82.30;;;;;;4972818;28;20110;-69
2022/03/24 13:23:23;;;;;;;63.03;4.32;;;4.30;81.60;;;;;;4978510;28;20441;-69
2022/03/24 13:25:53;;;;;;;17.70;2.10;;;4.30;82.70;;;;;;4968697;28;20486;-69
2022/03/24 13:28:24;;;;;;;3.75;0.93;;;4.40;85.40;;;;;;4970791;28;20293;-69
2022/03/24 13:30:52;;;;;;;18.30;1.27;;;4.50;83.40;;;;;;4959953;28;20042;-69
2022/03/24 13:33:20;;;;;;;27.35;1.88;;;4.50;82.00;;;;;;4973642;28;20030;-69
2022/03/24 13:35:48;;;;;;;15.73;1.30;;;4.40;81.40;;;;;;4973407;28;20026;-69
2022/03/24 13:38:21;;;;;;;6.45;1.10;;;4.30;81.00;;;;;;4973421;28;20183;-69
2022/03/24 13:40:49;;;;;;;25.02;2.20;;;4.40;80.60;;;;;;4973410;28;20043;-69
2022/03/24 13:43:18;;;;;;;8.18;1.23;;;4.40;80.80;;;;;;4973821;28;20022;-69
2022/03/24 13:45:44;;;;;;;16.17;1.90;;;4.40;80.20;;;;;;4973311;28;20027;-68
2022/03/24 13:48:15;;;;;;;25.40;3.55;;;4.50;87.90;;;;;;4973614;28;20097;-69
2022/03/24 13:50:44;;;;;;;65.88;3.33;;;4.80;85.50;;;;;;4973387;28;20027;-69
2022/03/24 13:53:25;;;;;;;15.45;1.33;;;4.80;81.60;;;;;;4973610;28;20074;-69
2022/03/24 13:56:04;;;;;;;2.17;0.80;;;5.40;98.90;;;;;;4973511;28;20034;-69
2022/03/24 13:58:30;;;;;;;18.33;1.53;;;5.20;79.40;;;;;;4973252;28;20034;-69